createdAt,value
2023-03-23T16:00:05.797Z,53.33
2023-03-23T16:10:14.944Z,54.40
2023-03-23T16:20:22.997Z,55.91
2023-03-23T16:30:33.710Z,57.16
2023-03-23T16:40:37.413Z,57.47
2023-03-23T16:50:42.510Z,58.20
2023-03-23T17:00:49.433Z,58.94
2023-03-23T17:10:55.915Z,60.20
2023-03-23T17:20:58.530Z,62.44
2023-03-23T17:31:01.943Z,63.13
2023-03-23T17:41:07.278Z,64.97
2023-03-23T17:51:11.970Z,63.43
2023-03-23T18:01:21.135Z,64.31
2023-03-23T18:11:24.064Z,64.12
2023-03-23T18:21:38.778Z,63.95
2023-03-23T18:31:50.112Z,64.63
2023-03-23T18:41:55.025Z,63.50
2023-03-23T18:52:04.860Z,62.24
2023-03-23T19:02:13.291Z,59.77
2023-03-23T19:12:17.641Z,58.95
2023-03-23T19:22:22.549Z,57.57
2023-03-23T19:32:25.800Z,57.57
2023-03-23T19:42:34.582Z,57.44
2023-03-23T19:52:38.036Z,57.08
2023-03-23T20:02:42.723Z,59.94
2023-03-23T20:12:45.854Z,61.77
2023-03-23T20:22:51.261Z,63.92
2023-03-23T20:32:58.978Z,65.14
2023-03-23T20:43:04.943Z,65.00
2023-03-23T20:53:09.754Z,66.26
2023-03-23T21:03:16.683Z,66.84
2023-03-23T21:13:19.710Z,67.15
2023-03-23T21:23:21.939Z,67.45
2023-03-23T21:33:25.048Z,68.00
2023-03-23T21:43:34.672Z,69.28
2023-03-23T21:53:37.243Z,69.61
2023-03-23T22:03:47.614Z,70.13
2023-03-23T22:13:49.765Z,69.75
2023-03-23T22:23:54.628Z,67.60
2023-03-23T22:33:57.529Z,66.92
2023-03-23T22:44:18.329Z,66.05
2023-03-23T22:54:25.165Z,64.86
2023-03-23T23:04:29.941Z,65.60
2023-03-23T23:14:31.967Z,66.80
2023-03-23T23:24:33.882Z,68.33
2023-03-23T23:34:37.013Z,68.91
2023-03-23T23:44:41.039Z,69.62
2023-03-23T23:54:53.293Z,70.45
